Time;durP1;ratioP1;P1;durP2;ratioP2;P2;SDS_P1;SDS_P2;PMS_P1;PMS_P2;Temp;Humidity;BMP_temperature;BMP_pressure;BME280_temperature;BME280_humidity;BME280_pressure;Samples;Min_cycle;Max_cycle;Signal;HPM_P1;HPM_P2
2022/03/12 00:00:00;;;;;;;;;;;;;;;9.44;44.41;101085.59;2108084;28;19908;-61
2022/03/12 00:01:01;;;;;;;;;;;;;;;9.43;44.21;101081.31;2107356;28;20446;-61
2022/03/12 00:02:01;;;;;;;;;;;;;;;9.43;44.10;101089.13;2099066;28;19956;-61
2022/03/12 00:03:02;;;;;;;;;;;;;;;9.42;44.19;101090.03;2107506;28;19912;-61
2022/03/12 00:04:03;;;;;;;;;;;;;;;9.43;44.24;101083.06;2108054;28;19908;-60
2022/03/12 00:05:07;;;;;;;;;;;;;;;9.39;44.11;101077.09;2108088;28;19969;-60
2022/03/12 00:06:09;;;;;;;;;;;;;;;9.39;44.24;101085.78;2107434;28;19908;-60
2022/03/12 00:07:12;;;;;;;;;;;;;;;9.40;44.34;101078.81;2107453;28;20308;-60
2022/03/12 00:08:13;;;;;;;;;;;;;;;9.42;43.77;101084.81;2108020;28;20401;-60
2022/03/12 00:09:13;;;;;;;;;;;;;;;9.41;44.34;101085.69;2107948;28;19912;-60
2022/03/12 00:10:14;;;;;;;;;;;;;;;9.36;44.82;101080.66;2108046;28;19908;-61
2022/03/12 00:11:15;;;;;;;;;;;;;;;9.38;44.60;101093.66;2108021;28;19908;-62
2022/03/12 00:12:19;;;;;;;;;;;;;;;9.39;44.19;101084.91;2107312;28;19908;-61
2022/03/12 00:13:20;;;;;;;;;;;;;;;9.41;44.35;101085.69;2099340;28;19908;-61
2022/03/12 00:14:22;;;;;;;;;;;;;;;9.43;44.36;101088.25;2107370;28;19908;-60
2022/03/12 00:15:23;;;;;;;;;;;;;;;9.42;44.53;101087.44;2107324;28;20028;-59
2022/03/12 00:16:24;;;;;;;;;;;;;;;9.38;45.07;101091.03;2107312;28;19945;-60
2022/03/12 00:17:25;;;;;;;;;;;;;;;9.33;44.60;101078.16;2107988;28;20381;-62
2022/03/12 00:18:31;;;;;;;;;;;;;;;9.36;44.65;101083.28;2107934;28;19916;-59
2022/03/12 00:19:32;;;;;;;;;;;;;;;9.39;44.49;101082.31;2107984;28;19916;-61
2022/03/12 00:20:33;;;;;;;;;;;;;;;9.45;44.81;101089.94;2107965;28;19908;-61
2022/03/12 00:21:39;;;;;;;;;;;;;;;9.46;44.49;101086.41;2107131;28;20273;-62
2022/03/12 00:22:45;;;;;;;;;;;;;;;9.43;44.71;101088.25;2099530;28;19912;-60
2022/03/12 00:23:50;;;;;;;;;;;;;;;9.38;45.34;101078.84;2107356;28;20299;-60
2022/03/12 00:24:51;;;;;;;;;;;;;;;9.35;44.87;101091.13;2107869;28;19912;-60
2022/03/12 00:25:51;;;;;;;;;;;;;;;9.41;45.08;101101.34;2107203;28;19943;-60
2022/03/12 00:26:51;;;;;;;;;;;;;;;9.42;44.88;101105.66;2107279;28;19915;-61
2022/03/12 00:27:52;;;;;;;;;;;;;;;9.39;44.98;101087.53;2107825;28;19984;-60
2022/03/12 00:28:54;;;;;;;;;;;;;;;9.37;45.24;101099.72;2110653;28;20358;-60
2022/03/12 00:29:54;;;;;;;;;;;;;;;9.35;44.96;101102.41;2107877;28;19954;-60
2022/03/12 00:30:54;;;;;;;;;;;;;;;9.32;45.30;101097.31;2107879;28;20327;-60
2022/03/12 00:31:55;;;;;;;;;;;;;;;9.32;45.02;101102.50;2107111;28;19908;-61
2022/03/12 00:32:57;;;;;;;;;;;;;;;9.36;44.88;101103.25;2107202;28;19931;-59
2022/03/12 00:33:58;;;;;;;;;;;;;;;9.36;45.18;101108.47;2107041;28;19943;-60
2022/03/12 00:34:58;;;;;;;;;;;;;;;9.36;44.97;101103.25;2107234;28;19974;-59
2022/03/12 00:36:00;;;;;;;;;;;;;;;9.40;44.63;101107.44;2107663;28;19926;-59
2022/03/12 00:37:00;;;;;;;;;;;;;;;9.43;45.12;101109.97;2107819;28;19908;-61
2022/03/12 00:38:01;;;;;;;;;;;;;;;9.43;45.41;101107.34;2107713;28;20418;-60
2022/03/12 00:39:01;;;;;;;;;;;;;;;9.43;45.17;101109.97;2107727;28;19951;-59
2022/03/12 00:40:02;;;;;;;;;;;;;;;9.47;45.05;101111.56;2107647;28;19947;-59
2022/03/12 00:41:03;;;;;;;;;;;;;;;9.49;44.93;101120.19;2107769;28;19958;-61
2022/03/12 00:42:04;;;;;;;;;;;;;;;9.51;44.99;101107.94;2107733;28;20012;-60
2022/03/12 00:43:04;;;;;;;;;;;;;;;9.50;45.34;101115.81;2107729;28;20288;-61
2022/03/12 00:44:05;;;;;;;;;;;;;;;9.47;45.94;101116.78;2107721;28;19908;-61
2022/03/12 00:45:05;;;;;;;;;;;;;;;9.40;47.24;101120.47;2107764;28;19908;-60
2022/03/12 00:46:05;;;;;;;;;;;;;;;9.37;47.11;101110.16;2107641;28;19921;-59
2022/03/12 00:47:06;;;;;;;;;;;;;;;9.36;47.50;101113.66;2107690;28;20395;-60
2022/03/12 00:48:06;;;;;;;;;;;;;;;9.34;47.35;101110.28;2107694;28;19955;-59
2022/03/12 00:49:06;;;;;;;;;;;;;;;9.34;47.27;101110.28;2107358;28;20353;-60
2022/03/12 00:50:07;;;;;;;;;;;;;;;9.33;47.02;101113.75;2107738;28;19908;-60
2022/03/12 00:51:09;;;;;;;;;;;;;;;9.34;47.90;101115.50;2107748;28;19908;-61
2022/03/12 00:52:10;;;;;;;;;;;;;;;9.32;47.99;101120.75;2107707;28;19915;-63
2022/03/12 00:53:10;;;;;;;;;;;;;;;9.38;47.68;101122.28;2107725;28;20390;-62
2022/03/12 00:54:11;;;;;;;;;;;;;;;9.36;47.30;101114.53;2107719;28;19908;-62
2022/03/12 00:55:11;;;;;;;;;;;;;;;9.38;47.20;101127.50;2107663;28;20387;-61
2022/03/12 00:56:11;;;;;;;;;;;;;;;9.36;48.51;101118.88;2107584;28;19962;-61
2022/03/12 00:57:12;;;;;;;;;;;;;;;9.31;48.54;101107.78;2107581;28;19915;-61
2022/03/12 00:58:12;;;;;;;;;;;;;;;9.25;48.88;101117.50;2107578;28;19947;-60
2022/03/12 00:59:12;;;;;;;;;;;;;;;9.25;48.61;101120.09;2107557;28;19912;-60
2022/03/12 01:00:15;;;;;;;;;;;;;;;9.25;48.27;101116.63;2107525;28;19912;-60
2022/03/12 01:01:16;;;;;;;;;;;;;;;9.23;48.11;101114.06;2107628;28;19908;-60
2022/03/12 01:02:16;;;;;;;;;;;;;;;9.24;48.51;101113.16;2107594;28;19915;-59
2022/03/12 01:03:16;;;;;;;;;;;;;;;9.28;48.54;101124.34;2107668;28;20353;-60
2022/03/12 01:04:17;;;;;;;;;;;;;;;9.28;49.06;101112.16;2107575;28;20362;-60
2022/03/12 01:05:18;;;;;;;;;;;;;;;9.31;48.27;101110.38;2107575;28;19908;-62
2022/03/12 01:06:18;;;;;;;;;;;;;;;9.35;48.78;101125.00;2106909;28;19914;-60
2022/03/12 01:07:18;;;;;;;;;;;;;;;9.34;48.44;101115.50;2098503;28;19908;-60
2022/03/12 01:08:19;;;;;;;;;;;;;;;9.34;48.31;101112.88;2106833;28;19930;-60
2022/03/12 01:09:19;;;;;;;;;;;;;;;9.34;48.53;101120.69;2110356;28;19907;-60
2022/03/12 01:10:20;;;;;;;;;;;;;;;9.35;48.56;101122.41;2107506;28;19908;-61
2022/03/12 01:11:20;;;;;;;;;;;;;;;9.38;48.76;101117.09;2107541;28;19908;-60
2022/03/12 01:12:20;;;;;;;;;;;;;;;9.37;48.38;101113.63;2107507;28;19908;-60
2022/03/12 01:13:23;;;;;;;;;;;;;;;9.37;48.64;101115.38;2107511;28;19961;-61
2022/03/12 01:14:23;;;;;;;;;;;;;;;9.42;48.66;101117.81;2107529;28;19981;-62
2022/03/12 01:15:24;;;;;;;;;;;;;;;9.43;48.78;101115.19;2107486;28;19908;-60
2022/03/12 01:16:24;;;;;;;;;;;;;;;9.43;48.65;101120.38;2107404;28;19912;-59
2022/03/12 01:17:24;;;;;;;;;;;;;;;9.43;48.58;101119.53;2107406;28;20430;-60
2022/03/12 01:18:25;;;;;;;;;;;;;;;9.42;48.60;101120.44;2107490;28;19908;-60
2022/03/12 01:19:26;;;;;;;;;;;;;;;9.40;48.75;101120.47;2107429;28;19908;-60
2022/03/12 01:20:26;;;;;;;;;;;;;;;9.43;48.50;101125.59;2106791;28;19908;-61
2022/03/12 01:21:26;;;;;;;;;;;;;;;9.44;48.98;101122.06;2106790;28;19908;-61
2022/03/12 01:22:29;;;;;;;;;;;;;;;9.43;49.12;101114.31;2107371;28;19915;-60
2022/03/12 01:23:29;;;;;;;;;;;;;;;9.42;49.10;101123.91;2107423;28;19908;-60
2022/03/12 01:24:30;;;;;;;;;;;;;;;9.43;48.92;101120.38;2106894;28;19908;-61
2022/03/12 01:25:30;;;;;;;;;;;;;;;9.44;49.27;101126.47;2098302;28;19991;-60
2022/03/12 01:26:30;;;;;;;;;;;;;;;9.41;49.89;101122.16;2106754;28;19908;-59
2022/03/12 01:27:31;;;;;;;;;;;;;;;9.36;49.74;101127.56;2107501;28;19966;-59
2022/03/12 01:28:31;;;;;;;;;;;;;;;9.31;50.54;101133.81;2107403;28;19908;-61
2022/03/12 01:29:31;;;;;;;;;;;;;;;9.28;50.19;101127.78;2107396;28;19958;-59
2022/03/12 01:30:31;;;;;;;;;;;;;;;9.26;50.56;101128.75;2107397;28;19908;-60
2022/03/12 01:31:32;;;;;;;;;;;;;;;9.24;51.39;101126.19;2107402;28;19915;-60
2022/03/12 01:32:32;;;;;;;;;;;;;;;9.21;51.74;101135.88;2107422;28;20047;-60
2022/03/12 01:33:33;;;;;;;;;;;;;;;9.20;52.21;101135.00;2106681;28;19933;-61
2022/03/12 01:34:33;;;;;;;;;;;;;;;9.18;51.71;101136.81;2106661;28;19912;-60
2022/03/12 01:35:33;;;;;;;;;;;;;;;9.17;52.82;101134.25;2106690;28;20038;-61
2022/03/12 01:36:33;;;;;;;;;;;;;;;9.16;52.87;101138.59;2106630;28;19951;-60
2022/03/12 01:37:34;;;;;;;;;;;;;;;9.14;52.66;101148.22;2107231;28;19915;-61
2022/03/12 01:38:35;;;;;;;;;;;;;;;9.09;53.76;101147.50;2107331;28;20304;-60
2022/03/12 01:39:35;;;;;;;;;;;;;;;9.05;53.65;101145.91;2107301;28;19923;-60
2022/03/12 01:40:36;;;;;;;;;;;;;;;9.02;53.95;101142.50;2107376;28;19961;-60
2022/03/12 01:41:40;;;;;;;;;;;;;;;8.99;53.94;101149.53;2107312;28;19959;-60
2022/03/12 01:42:42;;;;;;;;;;;;;;;8.99;53.73;101141.72;2106632;28;19908;-61
2022/03/12 01:43:43;;;;;;;;;;;;;;;8.96;53.28;101147.88;2109541;28;20121;-60
2022/03/12 01:44:44;;;;;;;;;;;;;;;8.94;53.35;101134.09;2107276;28;20269;-62
2022/03/12 01:45:44;;;;;;;;;;;;;;;8.97;54.37;101144.38;2107288;28;20393;-60
2022/03/12 01:46:46;;;;;;;;;;;;;;;8.96;54.71;101141.84;2107196;28;19908;-60
2022/03/12 01:47:47;;;;;;;;;;;;;;;8.93;54.42;101141.94;2107241;28;19912;-60
2022/03/12 01:48:50;;;;;;;;;;;;;;;8.93;55.36;101147.97;2107127;28;19908;-60
2022/03/12 01:49:52;;;;;;;;;;;;;;;8.92;55.06;101141.06;2107256;28;19904;-60
2022/03/12 01:50:52;;;;;;;;;;;;;;;8.89;54.82;101135.97;2107162;28;19908;-61
2022/03/12 01:51:53;;;;;;;;;;;;;;;8.89;55.79;101146.38;2107270;28;19911;-60
2022/03/12 01:52:57;;;;;;;;;;;;;;;8.85;56.22;101139.56;2107255;28;19934;-59
2022/03/12 01:53:58;;;;;;;;;;;;;;;8.82;56.76;101144.84;2109997;28;19908;-60
2022/03/12 01:54:58;;;;;;;;;;;;;;;8.78;56.07;101133.69;2107254;28;19995;-60
2022/03/12 01:55:59;;;;;;;;;;;;;;;8.78;56.65;101138.03;2107122;28;20288;-60
2022/03/12 01:56:59;;;;;;;;;;;;;;;8.72;56.17;101139.06;2107215;28;19921;-61
2022/03/12 01:58:01;;;;;;;;;;;;;;;8.74;57.27;101138.16;2107161;28;19908;-61
2022/03/12 01:59:02;;;;;;;;;;;;;;;8.72;56.73;101139.94;2110002;28;20004;-61
2022/03/12 02:00:03;;;;;;;;;;;;;;;8.70;56.90;101141.75;2106744;28;19933;-60
2022/03/12 02:01:03;;;;;;;;;;;;;;;8.72;57.64;101133.88;2106953;28;20442;-60
2022/03/12 02:02:08;;;;;;;;;;;;;;;8.69;57.56;101133.97;2107129;28;19957;-60
2022/03/12 02:03:10;;;;;;;;;;;;;;;8.66;58.32;101134.94;2107243;28;19943;-60
2022/03/12 02:04:10;;;;;;;;;;;;;;;8.62;58.92;101138.50;2107200;28;19919;-62
2022/03/12 02:05:13;;;;;;;;;;;;;;;8.60;58.39;101130.75;2106478;28;19908;-60
2022/03/12 02:06:15;;;;;;;;;;;;;;;8.64;58.14;101141.91;2106673;28;20006;-60
2022/03/12 02:07:16;;;;;;;;;;;;;;;8.65;58.35;101132.38;2109955;28;19908;-59
2022/03/12 02:08:17;;;;;;;;;;;;;;;8.64;57.02;101134.09;2107144;28;20384;-60
2022/03/12 02:09:18;;;;;;;;;;;;;;;8.67;58.97;101143.56;2107150;28;19943;-60
2022/03/12 02:10:19;;;;;;;;;;;;;;;8.65;58.45;101135.81;2107145;28;20315;-60
2022/03/12 02:11:27;;;;;;;;;;;;;;;8.65;58.33;101133.19;2107054;28;19911;-59
2022/03/12 02:12:27;;;;;;;;;;;;;;;8.67;57.61;101127.94;2107196;28;19907;-59
2022/03/12 02:13:29;;;;;;;;;;;;;;;8.71;58.21;101137.38;2107086;28;19962;-61
2022/03/12 02:14:29;;;;;;;;;;;;;;;8.76;57.03;101135.50;2106440;28;20266;-60
2022/03/12 02:15:29;;;;;;;;;;;;;;;8.75;57.86;101129.44;2106458;28;19914;-62
2022/03/12 02:16:30;;;;;;;;;;;;;;;8.71;57.32;101125.22;2107023;28;19955;-60
2022/03/12 02:17:30;;;;;;;;;;;;;;;8.72;57.70;101129.53;2107106;28;19965;-59
2022/03/12 02:18:30;;;;;;;;;;;;;;;8.70;57.35;101133.94;2107100;28;19915;-60
2022/03/12 02:19:31;;;;;;;;;;;;;;;8.71;57.57;101133.03;2107125;28;19908;-59
2022/03/12 02:20:32;;;;;;;;;;;;;;;8.71;57.95;101138.22;2107147;28;19908;-60
2022/03/12 02:21:38;;;;;;;;;;;;;;;8.72;58.61;101137.31;2106425;28;19908;-60
2022/03/12 02:22:38;;;;;;;;;;;;;;;8.68;58.48;101138.31;2106512;28;20007;-60
2022/03/12 02:23:48;;;;;;;;;;;;;;;8.68;58.50;101143.53;2107132;28;19918;-59
2022/03/12 02:24:48;;;;;;;;;;;;;;;8.66;57.74;101134.94;2109896;28;19914;-60
2022/03/12 02:25:49;;;;;;;;;;;;;;;8.69;58.28;101140.00;2107120;28;19908;-60
2022/03/12 02:26:49;;;;;;;;;;;;;;;8.70;59.21;101136.53;2107150;28;20345;-61
2022/03/12 02:27:50;;;;;;;;;;;;;;;8.67;58.50;101141.81;2107114;28;19907;-60
2022/03/12 02:28:50;;;;;;;;;;;;;;;8.67;58.68;101136.63;2107198;28;19955;-61
2022/03/12 02:29:51;;;;;;;;;;;;;;;8.66;59.04;101140.13;2107123;28;19958;-60
2022/03/12 02:30:51;;;;;;;;;;;;;;;8.66;58.97;101137.53;2107117;28;19952;-60
2022/03/12 02:31:56;;;;;;;;;;;;;;;8.66;58.94;101140.13;2107144;28;19916;-59
2022/03/12 02:32:58;;;;;;;;;;;;;;;8.67;58.64;101135.75;2107119;28;19908;-59
2022/03/12 02:34:02;;;;;;;;;;;;;;;8.66;59.28;101144.47;2107258;28;19915;-59
2022/03/12 02:35:06;;;;;;;;;;;;;;;8.63;59.30;101141.03;2107050;28;20007;-60
2022/03/12 02:36:11;;;;;;;;;;;;;;;8.62;58.94;101133.28;2106991;28;19962;-60
2022/03/12 02:37:12;;;;;;;;;;;;;;;8.63;58.82;101145.41;2107076;28;20353;-60
2022/03/12 02:38:12;;;;;;;;;;;;;;;8.60;58.63;101142.91;2107058;28;20369;-61
2022/03/12 02:39:12;;;;;;;;;;;;;;;8.61;58.66;101145.47;2107068;28;19915;-60
2022/03/12 02:40:13;;;;;;;;;;;;;;;8.64;58.61;101147.13;2107053;28;19911;-61
2022/03/12 02:41:15;;;;;;;;;;;;;;;8.68;57.35;101151.31;2107056;28;19912;-60
2022/03/12 02:42:16;;;;;;;;;;;;;;;8.70;57.99;101151.28;2107101;28;19911;-60
2022/03/12 02:43:21;;;;;;;;;;;;;;;8.69;57.78;101150.41;2107106;28;19908;-61
2022/03/12 02:44:22;;;;;;;;;;;;;;;8.69;58.34;101160.84;2109840;28;20322;-59
2022/03/12 02:45:23;;;;;;;;;;;;;;;8.69;58.68;101150.41;2106348;28;19914;-60
2022/03/12 02:46:25;;;;;;;;;;;;;;;8.70;58.41;101154.75;2106504;28;19916;-59
2022/03/12 02:47:32;;;;;;;;;;;;;;;8.70;57.74;101152.16;2109792;28;19915;-59
2022/03/12 02:48:32;;;;;;;;;;;;;;;8.69;57.93;101147.00;2106393;28;19915;-59
2022/03/12 02:49:37;;;;;;;;;;;;;;;8.69;57.54;101155.63;2106280;28;19920;-60
2022/03/12 02:50:37;;;;;;;;;;;;;;;8.67;57.93;101161.78;2107031;28;19915;-59
2022/03/12 02:51:37;;;;;;;;;;;;;;;8.64;57.59;101162.72;2107006;28;19990;-60
2022/03/12 02:52:41;;;;;;;;;;;;;;;8.65;57.66;101151.41;2107039;28;19912;-60
2022/03/12 02:53:42;;;;;;;;;;;;;;;8.65;57.93;101153.19;2107065;28;20357;-60
2022/03/12 02:54:43;;;;;;;;;;;;;;;8.65;58.53;101161.00;2107057;28;19915;-61
2022/03/12 02:55:45;;;;;;;;;;;;;;;8.60;58.05;101161.13;2107261;28;20314;-60
2022/03/12 02:56:45;;;;;;;;;;;;;;;8.59;58.61;101159.41;2107001;28;19912;-61
2022/03/12 02:57:46;;;;;;;;;;;;;;;8.63;58.46;101158.44;2106958;28;19947;-60
2022/03/12 02:58:46;;;;;;;;;;;;;;;8.62;58.67;101165.38;2106953;28;19973;-60
2022/03/12 02:59:51;;;;;;;;;;;;;;;8.59;58.44;101159.41;2106881;28;19908;-59
2022/03/12 03:00:51;;;;;;;;;;;;;;;8.58;59.45;101165.50;2106977;28;19908;-59
2022/03/12 03:01:52;;;;;;;;;;;;;;;8.62;58.76;101169.72;2107005;28;19915;-60
2022/03/12 03:02:56;;;;;;;;;;;;;;;8.65;58.27;101167.03;2106926;28;19908;-60
2022/03/12 03:03:56;;;;;;;;;;;;;;;8.65;58.50;101167.03;2106910;28;20424;-60
2022/03/12 03:04:57;;;;;;;;;;;;;;;8.64;57.99;101167.94;2106909;28;19908;-61
2022/03/12 03:05:57;;;;;;;;;;;;;;;8.62;59.11;101169.72;2106909;28;19915;-60
2022/03/12 03:06:58;;;;;;;;;;;;;;;8.67;59.03;101170.44;2106951;28;19943;-60
2022/03/12 03:08:00;;;;;;;;;;;;;;;8.67;58.67;101162.63;2106944;28;20012;-59
2022/03/12 03:09:01;;;;;;;;;;;;;;;8.62;59.82;101169.72;2106978;28;20266;-60
2022/03/12 03:10:01;;;;;;;;;;;;;;;8.56;59.73;101162.97;2106961;28;19914;-60
2022/03/12 03:11:08;;;;;;;;;;;;;;;8.49;59.56;101169.19;2106850;28;19908;-61
2022/03/12 03:12:10;;;;;;;;;;;;;;;8.47;60.67;101158.84;2110975;28;19908;-60
2022/03/12 03:13:16;;;;;;;;;;;;;;;8.41;60.54;101160.75;2108482;28;19960;-61
2022/03/12 03:14:18;;;;;;;;;;;;;;;8.32;60.44;101162.69;2108450;28;20003;-60
2022/03/12 03:15:19;;;;;;;;;;;;;;;8.25;60.99;101169.81;2107795;28;19931;-61
2022/03/12 03:16:21;;;;;;;;;;;;;;;8.28;61.09;101168.06;2107830;28;19943;-61
2022/03/12 03:17:22;;;;;;;;;;;;;;;8.24;61.24;101169.88;2108437;28;19984;-60
2022/03/12 03:18:24;;;;;;;;;;;;;;;8.22;60.56;101167.31;2108479;28;19908;-60
2022/03/12 03:19:26;;;;;;;;;;;;;;;8.20;61.65;101174.31;2108435;28;19908;-60
2022/03/12 03:20:28;;;;;;;;;;;;;;;8.21;61.86;101170.81;2108433;28;20361;-61
2022/03/12 03:21:28;;;;;;;;;;;;;;;8.22;61.82;101177.69;2108392;28;19914;-60
2022/03/12 03:22:28;;;;;;;;;;;;;;;8.16;62.63;101172.69;2108417;28;20285;-59
2022/03/12 03:23:29;;;;;;;;;;;;;;;8.11;61.85;101171.97;2108296;28;19908;-61
2022/03/12 03:24:30;;;;;;;;;;;;;;;8.05;62.11;101174.72;2108481;28;19912;-60
2022/03/12 03:25:30;;;;;;;;;;;;;;;7.98;61.86;101179.22;2108484;28;19987;-60
2022/03/12 03:26:33;;;;;;;;;;;;;;;7.94;62.34;101168.03;2107733;28;19908;-60
2022/03/12 03:27:33;;;;;;;;;;;;;;;7.99;63.24;101174.00;2107763;28;19966;-59
2022/03/12 03:28:34;;;;;;;;;;;;;;;8.02;63.12;101178.25;2108369;28;19972;-60
2022/03/12 03:29:34;;;;;;;;;;;;;;;7.97;64.49;101167.09;2108378;28;19915;-60
2022/03/12 03:30:38;;;;;;;;;;;;;;;7.95;64.40;101169.78;2108337;28;19915;-60
2022/03/12 03:31:38;;;;;;;;;;;;;;;7.93;64.02;101176.75;2107592;28;20286;-60
2022/03/12 03:32:38;;;;;;;;;;;;;;;7.85;63.62;101181.28;2107750;28;19942;-60
2022/03/12 03:33:38;;;;;;;;;;;;;;;7.80;64.77;101177.97;2108351;28;19912;-60
2022/03/12 03:34:39;;;;;;;;;;;;;;;7.78;64.64;101177.13;2108327;28;19912;-60
2022/03/12 03:35:39;;;;;;;;;;;;;;;7.73;65.13;101185.03;2107604;28;19924;-61
2022/03/12 03:36:39;;;;;;;;;;;;;;;7.72;65.58;101180.75;2107690;28;19912;-61
2022/03/12 03:37:40;;;;;;;;;;;;;;;7.73;65.02;101179.84;2108309;28;20315;-61
2022/03/12 03:38:40;;;;;;;;;;;;;;;7.69;65.01;101186.88;2108304;28;19970;-60
2022/03/12 03:39:40;;;;;;;;;;;;;;;7.66;65.75;101184.34;2108246;28;19915;-61
2022/03/12 03:40:41;;;;;;;;;;;;;;;7.68;65.99;101182.56;2108338;28;19908;-61
2022/03/12 03:41:41;;;;;;;;;;;;;;;7.66;66.50;101188.69;2111088;28;19912;-61
2022/03/12 03:42:42;;;;;;;;;;;;;;;7.66;65.23;101192.13;2108292;28;19908;-58
2022/03/12 03:43:44;;;;;;;;;;;;;;;7.64;65.03;101180.94;2108309;28;19908;-61
2022/03/12 03:44:44;;;;;;;;;;;;;;;7.67;66.29;101188.63;2107597;28;20372;-60
2022/03/12 03:45:46;;;;;;;;;;;;;;;7.70;66.04;101192.94;2107661;28;19908;-60
2022/03/12 03:46:46;;;;;;;;;;;;;;;7.75;67.27;101192.78;2108278;28;19952;-61
2022/03/12 03:47:46;;;;;;;;;;;;;;;7.78;67.93;101191.00;2108186;28;20409;-62
2022/03/12 03:48:48;;;;;;;;;;;;;;;7.76;67.48;101190.16;2108145;28;19908;-60
2022/03/12 03:49:48;;;;;;;;;;;;;;;7.73;68.47;101185.91;2107549;28;19953;-60
2022/03/12 03:50:49;;;;;;;;;;;;;;;7.76;69.50;101194.53;2099235;28;19908;-60
2022/03/12 03:51:49;;;;;;;;;;;;;;;7.76;69.07;101197.13;2107643;28;19915;-60
2022/03/12 03:52:50;;;;;;;;;;;;;;;7.75;69.42;101193.66;2108178;28;19908;-60
2022/03/12 03:53:51;;;;;;;;;;;;;;;7.71;69.90;101187.69;2108218;28;19907;-60
2022/03/12 03:54:51;;;;;;;;;;;;;;;7.70;70.76;101191.16;2108221;28;20355;-60
2022/03/12 03:55:54;;;;;;;;;;;;;;;7.70;70.58;101195.53;2108121;28;19908;-59
2022/03/12 03:56:55;;;;;;;;;;;;;;;7.62;70.64;101198.28;2107465;28;20270;-60
2022/03/12 03:57:56;;;;;;;;;;;;;;;7.60;71.05;101185.34;2107501;28;19914;-60
2022/03/12 03:58:56;;;;;;;;;;;;;;;7.70;72.21;101201.56;2107460;28;20235;-60
2022/03/12 03:59:56;;;;;;;;;;;;;;;7.70;69.71;101195.53;2107397;28;19950;-61
2022/03/12 04:00:59;;;;;;;;;;;;;;;7.71;72.39;101200.69;2099100;28;20309;-60
2022/03/12 04:01:59;;;;;;;;;;;;;;;7.65;71.62;101198.22;2107500;28;19981;-59
2022/03/12 04:03:02;;;;;;;;;;;;;;;7.59;70.80;101203.56;2107489;28;19908;-60
2022/03/12 04:04:03;;;;;;;;;;;;;;;7.51;70.89;101202.88;2107551;28;19928;-60
2022/03/12 04:05:03;;;;;;;;;;;;;;;7.42;71.31;101212.59;2108046;28;19912;-59
2022/03/12 04:06:04;;;;;;;;;;;;;;;7.33;72.73;101208.47;2108101;28;19908;-60
2022/03/12 04:07:05;;;;;;;;;;;;;;;7.27;73.26;101207.75;2108179;28;20284;-61
2022/03/12 04:08:07;;;;;;;;;;;;;;;7.24;74.46;101206.09;2108100;28;19908;-60
2022/03/12 04:09:07;;;;;;;;;;;;;;;7.29;73.59;101216.38;2108157;28;19908;-60
2022/03/12 04:10:10;;;;;;;;;;;;;;;7.29;73.41;101217.22;2108085;28;19908;-61
2022/03/12 04:11:15;;;;;;;;;;;;;;;7.26;73.37;101216.44;2107962;28;19908;-62
2022/03/12 04:12:15;;;;;;;;;;;;;;;7.19;72.86;101211.38;2108001;28;19918;-60
2022/03/12 04:13:16;;;;;;;;;;;;;;;7.16;74.54;101211.47;2108042;28;20015;-61
2022/03/12 04:14:16;;;;;;;;;;;;;;;7.17;76.85;101208.00;2107356;28;19908;-60
2022/03/12 04:15:17;;;;;;;;;;;;;;;7.16;77.18;101216.66;2098959;28;19915;-59
2022/03/12 04:16:18;;;;;;;;;;;;;;;7.17;77.93;101226.16;2107357;28;19945;-60
2022/03/12 04:17:18;;;;;;;;;;;;;;;7.12;77.04;101225.38;2108003;28;19908;-59
2022/03/12 04:18:21;;;;;;;;;;;;;;;7.07;77.45;101219.44;2108053;28;19908;-60
2022/03/12 04:19:22;;;;;;;;;;;;;;;7.02;77.88;101223.88;2108110;28;19908;-60
2022/03/12 04:20:22;;;;;;;;;;;;;;;7.00;80.30;101223.91;2107959;28;19908;-59
2022/03/12 04:21:23;;;;;;;;;;;;;;;7.02;79.51;101213.50;2108003;28;19943;-60
2022/03/12 04:22:24;;;;;;;;;;;;;;;7.00;79.21;101223.06;2107959;28;19912;-60
2022/03/12 04:23:25;;;;;;;;;;;;;;;6.99;79.44;101223.94;2107235;28;19908;-60
2022/03/12 04:24:25;;;;;;;;;;;;;;;6.95;79.42;101229.19;2107828;28;19947;-60
2022/03/12 04:25:27;;;;;;;;;;;;;;;6.93;79.95;101225.81;2107928;28;19915;-59
2022/03/12 04:26:30;;;;;;;;;;;;;;;6.98;81.14;101227.44;2107937;28;20431;-61
2022/03/12 04:27:30;;;;;;;;;;;;;;;7.01;82.28;101222.19;2107926;28;20388;-60
2022/03/12 04:28:32;;;;;;;;;;;;;;;7.06;82.79;101216.03;2107914;28;19907;-60
2022/03/12 04:29:32;;;;;;;;;;;;;;;7.06;81.68;101215.16;2110698;28;19998;-60
2022/03/12 04:30:33;;;;;;;;;;;;;;;7.01;82.25;101222.19;2107172;28;19919;-59
2022/03/12 04:31:33;;;;;;;;;;;;;;;7.00;82.58;101225.66;2107243;28;20200;-60
2022/03/12 04:32:34;;;;;;;;;;;;;;;6.96;80.66;101224.88;2107857;28;19912;-60
2022/03/12 04:33:35;;;;;;;;;;;;;;;6.93;80.88;101233.59;2107188;28;19930;-60
2022/03/12 04:34:35;;;;;;;;;;;;;;;6.88;81.69;101224.19;2107195;28;19942;-60
2022/03/12 04:35:36;;;;;;;;;;;;;;;6.82;80.78;101228.59;2107796;28;19908;-60
2022/03/12 04:36:36;;;;;;;;;;;;;;;6.83;81.08;101225.13;2107646;28;19919;-60
2022/03/12 04:37:37;;;;;;;;;;;;;;;6.90;82.77;101225.00;2107854;28;20253;-60
2022/03/12 04:38:37;;;;;;;;;;;;;;;6.90;82.36;101225.84;2107872;28;19908;-60
2022/03/12 04:39:37;;;;;;;;;;;;;;;6.90;81.93;101220.66;2107845;28;19930;-60
2022/03/12 04:40:41;;;;;;;;;;;;;;;6.90;82.62;101225.00;2107779;28;19908;-60
2022/03/12 04:41:41;;;;;;;;;;;;;;;6.88;82.68;101229.38;2107825;28;19908;-60
2022/03/12 04:42:45;;;;;;;;;;;;;;;6.89;82.56;101229.34;2107828;28;19914;-61
2022/03/12 04:43:47;;;;;;;;;;;;;;;6.87;82.37;101225.91;2107765;28;19908;-62
2022/03/12 04:44:48;;;;;;;;;;;;;;;6.87;81.85;101230.28;2107835;28;19908;-61
2022/03/12 04:45:49;;;;;;;;;;;;;;;6.87;82.16;101233.69;2107812;28;19915;-60
2022/03/12 04:46:49;;;;;;;;;;;;;;;6.98;83.86;101223.09;2107762;28;19923;-60
2022/03/12 04:47:50;;;;;;;;;;;;;;;7.00;84.24;101220.47;2107775;28;19908;-59
2022/03/12 04:48:50;;;;;;;;;;;;;;;6.97;84.73;101220.56;2107506;28;19908;-60
2022/03/12 04:49:51;;;;;;;;;;;;;;;6.91;84.18;101222.38;2107733;28;19904;-59
2022/03/12 04:50:52;;;;;;;;;;;;;;;6.86;84.18;101224.22;2107705;28;19951;-60
2022/03/12 04:51:53;;;;;;;;;;;;;;;6.80;83.11;101224.31;2107685;28;19953;-59
2022/03/12 04:52:56;;;;;;;;;;;;;;;6.75;82.78;101226.16;2107689;28;19985;-60
2022/03/12 04:54:00;;;;;;;;;;;;;;;6.73;83.76;101236.56;2107673;28;19991;-60
2022/03/12 04:55:07;;;;;;;;;;;;;;;6.70;83.53;101234.91;2107634;28;19998;-61
2022/03/12 04:56:09;;;;;;;;;;;;;;;6.72;85.81;101234.00;2107579;28;20357;-60
2022/03/12 04:57:09;;;;;;;;;;;;;;;6.78;85.09;101241.69;2107707;28;19908;-60
2022/03/12 04:58:12;;;;;;;;;;;;;;;6.76;84.40;101236.53;2107676;28;19908;-60
2022/03/12 04:59:13;;;;;;;;;;;;;;;6.72;84.22;101236.59;2107687;28;19908;-60
2022/03/12 05:00:16;;;;;;;;;;;;;;;6.68;84.35;101236.66;2107599;28;19958;-61
2022/03/12 05:01:17;;;;;;;;;;;;;;;6.68;83.97;101239.25;2107555;28;19908;-61
2022/03/12 05:02:17;;;;;;;;;;;;;;;6.67;83.89;101234.13;2106952;28;19915;-60
2022/03/12 05:03:19;;;;;;;;;;;;;;;6.66;85.97;101241.03;2098503;28;19908;-60
2022/03/12 05:04:20;;;;;;;;;;;;;;;6.67;86.25;101239.31;2107025;28;19908;-59
2022/03/12 05:05:21;;;;;;;;;;;;;;;6.62;85.23;101246.31;2107586;28;19962;-60
2022/03/12 05:06:24;;;;;;;;;;;;;;;6.54;85.50;101238.69;2107626;28;19908;-59
2022/03/12 05:07:26;;;;;;;;;;;;;;;6.47;85.49;101239.69;2107586;28;20426;-60
2022/03/12 05:08:35;;;;;;;;;;;;;;;6.47;86.95;101247.47;2106925;28;19969;-59
2022/03/12 05:09:35;;;;;;;;;;;;;;;6.52;87.67;101253.41;2107054;28;19908;-60
2022/03/12 05:10:36;;;;;;;;;;;;;;;6.50;87.71;101250.00;2106812;28;19915;-60
2022/03/12 05:11:38;;;;;;;;;;;;;;;6.46;89.20;101236.22;2106937;28;19915;-60
2022/03/12 05:12:43;;;;;;;;;;;;;;;6.50;89.98;101237.88;2107578;28;19914;-60
2022/03/12 05:13:44;;;;;;;;;;;;;;;6.46;88.36;101241.41;2107517;28;20406;-60
2022/03/12 05:14:48;;;;;;;;;;;;;;;6.39;88.47;101235.50;2107537;28;19908;-59
2022/03/12 05:15:50;;;;;;;;;;;;;;;6.42;90.27;101242.34;2106766;28;20313;-60
2022/03/12 05:16:50;;;;;;;;;;;;;;;6.46;89.28;101237.97;2106851;28;20038;-60
2022/03/12 05:17:51;;;;;;;;;;;;;;;6.41;89.68;101244.09;2107379;28;19912;-59
2022/03/12 05:18:52;;;;;;;;;;;;;;;6.35;89.11;101244.22;2107448;28;19908;-60